sensor_id;sensor_type;location;lat;lon;timestamp;P1;durP1;ratioP1;P2;durP2;ratioP2
40745;SDS011;26454;51.164;4.488;2023-04-03T00:02:16;18.13;;;14.07;;
40745;SDS011;26454;51.164;4.488;2023-04-03T00:04:42;17.17;;;13.18;;
40745;SDS011;26454;51.164;4.488;2023-04-03T00:07:08;18.65;;;13.88;;
40745;SDS011;26454;51.164;4.488;2023-04-03T00:09:35;18.45;;;12.52;;
40745;SDS011;26454;51.164;4.488;2023-04-03T00:12:01;16.95;;;13.02;;
40745;SDS011;26454;51.164;4.488;2023-04-03T00:14:27;20.00;;;13.98;;
40745;SDS011;26454;51.164;4.488;2023-04-03T00:16:54;19.02;;;14.02;;
40745;SDS011;26454;51.164;4.488;2023-04-03T00:19:20;19.83;;;12.50;;
40745;SDS011;26454;51.164;4.488;2023-04-03T00:21:46;14.43;;;12.30;;
40745;SDS011;26454;51.164;4.488;2023-04-03T00:24:12;17.13;;;13.30;;
40745;SDS011;26454;51.164;4.488;2023-04-03T00:26:38;17.33;;;12.23;;
40745;SDS011;26454;51.164;4.488;2023-04-03T00:29:05;16.77;;;12.27;;
40745;SDS011;26454;51.164;4.488;2023-04-03T00:31:31;19.88;;;13.50;;
40745;SDS011;26454;51.164;4.488;2023-04-03T00:33:57;15.85;;;12.43;;
40745;SDS011;26454;51.164;4.488;2023-04-03T00:36:24;14.98;;;13.27;;
40745;SDS011;26454;51.164;4.488;2023-04-03T00:38:50;20.00;;;13.15;;
40745;SDS011;26454;51.164;4.488;2023-04-03T00:41:16;17.30;;;13.73;;
40745;SDS011;26454;51.164;4.488;2023-04-03T00:46:12;19.88;;;12.63;;
40745;SDS011;26454;51.164;4.488;2023-04-03T00:48:40;17.02;;;12.75;;
40745;SDS011;26454;51.164;4.488;2023-04-03T00:51:08;20.75;;;13.07;;
40745;SDS011;26454;51.164;4.488;2023-04-03T00:53:44;19.08;;;13.48;;
40745;SDS011;26454;51.164;4.488;2023-04-03T00:56:12;18.63;;;12.73;;
40745;SDS011;26454;51.164;4.488;2023-04-03T00:58:41;21.50;;;13.65;;
40745;SDS011;26454;51.164;4.488;2023-04-03T01:01:11;15.32;;;12.63;;
40745;SDS011;26454;51.164;4.488;2023-04-03T01:03:38;15.60;;;12.82;;
40745;SDS011;26454;51.164;4.488;2023-04-03T01:06:04;15.43;;;13.63;;
40745;SDS011;26454;51.164;4.488;2023-04-03T01:08:31;18.92;;;13.95;;
40745;SDS011;26454;51.164;4.488;2023-04-03T01:10:57;20.00;;;14.48;;
40745;SDS011;26454;51.164;4.488;2023-04-03T01:13:27;17.10;;;12.85;;
40745;SDS011;26454;51.164;4.488;2023-04-03T01:15:53;18.00;;;13.25;;
40745;SDS011;26454;51.164;4.488;2023-04-03T01:18:20;20.17;;;15.02;;
40745;SDS011;26454;51.164;4.488;2023-04-03T01:20:50;19.35;;;13.38;;
40745;SDS011;26454;51.164;4.488;2023-04-03T01:23:26;21.52;;;13.75;;
40745;SDS011;26454;51.164;4.488;2023-04-03T01:25:56;16.17;;;13.70;;
40745;SDS011;26454;51.164;4.488;2023-04-03T01:28:24;21.20;;;15.63;;
40745;SDS011;26454;51.164;4.488;2023-04-03T01:33:26;17.60;;;15.68;;
40745;SDS011;26454;51.164;4.488;2023-04-03T01:35:54;20.48;;;14.27;;
40745;SDS011;26454;51.164;4.488;2023-04-03T01:38:20;19.42;;;15.57;;
40745;SDS011;26454;51.164;4.488;2023-04-03T01:40:46;15.82;;;13.65;;
40745;SDS011;26454;51.164;4.488;2023-04-03T01:43:13;23.55;;;16.83;;
40745;SDS011;26454;51.164;4.488;2023-04-03T01:45:39;16.58;;;14.40;;
40745;SDS011;26454;51.164;4.488;2023-04-03T01:48:05;17.98;;;14.50;;
40745;SDS011;26454;51.164;4.488;2023-04-03T01:50:31;16.92;;;13.95;;
40745;SDS011;26454;51.164;4.488;2023-04-03T01:52:57;18.00;;;14.30;;
40745;SDS011;26454;51.164;4.488;2023-04-03T01:55:25;21.15;;;13.48;;
40745;SDS011;26454;51.164;4.488;2023-04-03T01:57:51;20.63;;;14.38;;
40745;SDS011;26454;51.164;4.488;2023-04-03T02:00:17;22.95;;;15.55;;
40745;SDS011;26454;51.164;4.488;2023-04-03T02:02:43;13.85;;;12.45;;
40745;SDS011;26454;51.164;4.488;2023-04-03T02:05:10;17.67;;;14.65;;
40745;SDS011;26454;51.164;4.488;2023-04-03T02:07:36;19.08;;;14.75;;
40745;SDS011;26454;51.164;4.488;2023-04-03T02:10:02;17.90;;;14.38;;
40745;SDS011;26454;51.164;4.488;2023-04-03T02:12:29;21.23;;;14.85;;
40745;SDS011;26454;51.164;4.488;2023-04-03T02:14:58;18.60;;;14.35;;
40745;SDS011;26454;51.164;4.488;2023-04-03T02:17:24;23.23;;;15.35;;
40745;SDS011;26454;51.164;4.488;2023-04-03T02:19:50;17.52;;;13.80;;
40745;SDS011;26454;51.164;4.488;2023-04-03T02:22:16;15.10;;;13.15;;
40745;SDS011;26454;51.164;4.488;2023-04-03T02:24:44;22.45;;;14.95;;
40745;SDS011;26454;51.164;4.488;2023-04-03T02:27:10;19.73;;;14.32;;
40745;SDS011;26454;51.164;4.488;2023-04-03T02:29:36;22.17;;;15.45;;
40745;SDS011;26454;51.164;4.488;2023-04-03T02:32:03;19.80;;;15.18;;
40745;SDS011;26454;51.164;4.488;2023-04-03T02:34:29;21.10;;;15.75;;
40745;SDS011;26454;51.164;4.488;2023-04-03T02:36:56;29.55;;;16.80;;
40745;SDS011;26454;51.164;4.488;2023-04-03T02:39:22;17.33;;;14.88;;
40745;SDS011;26454;51.164;4.488;2023-04-03T02:41:49;20.95;;;16.98;;
40745;SDS011;26454;51.164;4.488;2023-04-03T02:44:15;19.85;;;16.15;;
40745;SDS011;26454;51.164;4.488;2023-04-03T02:46:42;22.00;;;15.85;;
40745;SDS011;26454;51.164;4.488;2023-04-03T02:49:08;23.38;;;16.20;;
40745;SDS011;26454;51.164;4.488;2023-04-03T02:51:34;22.48;;;16.02;;
40745;SDS011;26454;51.164;4.488;2023-04-03T02:54:01;23.83;;;16.67;;
40745;SDS011;26454;51.164;4.488;2023-04-03T02:56:27;19.30;;;16.13;;
40745;SDS011;26454;51.164;4.488;2023-04-03T02:58:53;20.00;;;17.27;;
40745;SDS011;26454;51.164;4.488;2023-04-03T03:01:21;18.60;;;15.75;;
40745;SDS011;26454;51.164;4.488;2023-04-03T03:03:48;19.27;;;17.02;;
40745;SDS011;26454;51.164;4.488;2023-04-03T03:06:16;22.25;;;16.92;;
40745;SDS011;26454;51.164;4.488;2023-04-03T03:08:42;26.33;;;16.60;;
40745;SDS011;26454;51.164;4.488;2023-04-03T03:11:09;19.80;;;16.25;;
40745;SDS011;26454;51.164;4.488;2023-04-03T03:13:35;27.50;;;18.27;;
40745;SDS011;26454;51.164;4.488;2023-04-03T03:16:09;20.40;;;16.98;;
40745;SDS011;26454;51.164;4.488;2023-04-03T03:18:36;22.65;;;18.05;;
40745;SDS011;26454;51.164;4.488;2023-04-03T03:21:03;22.35;;;18.65;;
40745;SDS011;26454;51.164;4.488;2023-04-03T03:23:30;25.55;;;18.15;;
40745;SDS011;26454;51.164;4.488;2023-04-03T03:25:59;28.00;;;18.10;;
40745;SDS011;26454;51.164;4.488;2023-04-03T03:28:26;22.92;;;16.92;;
40745;SDS011;26454;51.164;4.488;2023-04-03T03:30:52;24.38;;;17.95;;
40745;SDS011;26454;51.164;4.488;2023-04-03T03:33:23;21.35;;;17.00;;
40745;SDS011;26454;51.164;4.488;2023-04-03T03:35:50;28.60;;;17.77;;
40745;SDS011;26454;51.164;4.488;2023-04-03T03:38:16;28.88;;;18.65;;
40745;SDS011;26454;51.164;4.488;2023-04-03T03:40:42;22.95;;;19.25;;
40745;SDS011;26454;51.164;4.488;2023-04-03T03:43:08;23.75;;;19.63;;
40745;SDS011;26454;51.164;4.488;2023-04-03T03:45:34;25.17;;;17.73;;
40745;SDS011;26454;51.164;4.488;2023-04-03T03:48:00;22.92;;;17.00;;
40745;SDS011;26454;51.164;4.488;2023-04-03T03:50:26;24.83;;;18.30;;
40745;SDS011;26454;51.164;4.488;2023-04-03T03:52:52;22.00;;;17.88;;
40745;SDS011;26454;51.164;4.488;2023-04-03T03:55:19;22.60;;;18.15;;
40745;SDS011;26454;51.164;4.488;2023-04-03T03:57:48;30.02;;;19.50;;
40745;SDS011;26454;51.164;4.488;2023-04-03T04:00:14;25.23;;;19.20;;
40745;SDS011;26454;51.164;4.488;2023-04-03T04:02:41;22.00;;;18.30;;
40745;SDS011;26454;51.164;4.488;2023-04-03T04:05:08;26.30;;;18.80;;
40745;SDS011;26454;51.164;4.488;2023-04-03T04:07:34;26.15;;;18.70;;
40745;SDS011;26454;51.164;4.488;2023-04-03T04:10:00;23.15;;;17.10;;
40745;SDS011;26454;51.164;4.488;2023-04-03T04:12:27;23.50;;;18.10;;
40745;SDS011;26454;51.164;4.488;2023-04-03T04:14:53;25.73;;;18.77;;
40745;SDS011;26454;51.164;4.488;2023-04-03T04:17:20;23.25;;;18.38;;
40745;SDS011;26454;51.164;4.488;2023-04-03T04:19:46;28.83;;;21.80;;
40745;SDS011;26454;51.164;4.488;2023-04-03T04:22:12;26.13;;;20.08;;
40745;SDS011;26454;51.164;4.488;2023-04-03T04:24:38;31.35;;;20.92;;
40745;SDS011;26454;51.164;4.488;2023-04-03T04:27:04;26.33;;;18.13;;
40745;SDS011;26454;51.164;4.488;2023-04-03T04:29:30;28.48;;;21.70;;
40745;SDS011;26454;51.164;4.488;2023-04-03T04:32:01;31.73;;;21.98;;
40745;SDS011;26454;51.164;4.488;2023-04-03T04:34:27;36.60;;;24.00;;
40745;SDS011;26454;51.164;4.488;2023-04-03T04:36:54;29.77;;;21.55;;
40745;SDS011;26454;51.164;4.488;2023-04-03T04:39:20;31.80;;;22.50;;
40745;SDS011;26454;51.164;4.488;2023-04-03T04:41:46;37.90;;;23.75;;
40745;SDS011;26454;51.164;4.488;2023-04-03T04:44:16;27.20;;;21.45;;
40745;SDS011;26454;51.164;4.488;2023-04-03T04:46:44;29.90;;;23.48;;
40745;SDS011;26454;51.164;4.488;2023-04-03T04:49:12;31.13;;;24.48;;
40745;SDS011;26454;51.164;4.488;2023-04-03T04:51:38;31.30;;;22.80;;
40745;SDS011;26454;51.164;4.488;2023-04-03T04:54:05;31.98;;;23.30;;
40745;SDS011;26454;51.164;4.488;2023-04-03T04:56:32;32.47;;;23.27;;
40745;SDS011;26454;51.164;4.488;2023-04-03T04:58:59;32.22;;;23.52;;
40745;SDS011;26454;51.164;4.488;2023-04-03T05:01:25;31.13;;;22.08;;
40745;SDS011;26454;51.164;4.488;2023-04-03T05:03:51;26.38;;;20.95;;
40745;SDS011;26454;51.164;4.488;2023-04-03T05:06:19;24.60;;;20.65;;
40745;SDS011;26454;51.164;4.488;2023-04-03T05:08:45;35.08;;;24.50;;
40745;SDS011;26454;51.164;4.488;2023-04-03T05:11:13;32.00;;;22.95;;
40745;SDS011;26454;51.164;4.488;2023-04-03T05:13:40;28.25;;;22.45;;
40745;SDS011;26454;51.164;4.488;2023-04-03T05:16:06;31.23;;;22.88;;
40745;SDS011;26454;51.164;4.488;2023-04-03T05:18:32;34.88;;;24.08;;
40745;SDS011;26454;51.164;4.488;2023-04-03T05:20:58;31.75;;;23.90;;
40745;SDS011;26454;51.164;4.488;2023-04-03T05:23:24;31.73;;;23.40;;
40745;SDS011;26454;51.164;4.488;2023-04-03T05:25:50;32.67;;;22.63;;
40745;SDS011;26454;51.164;4.488;2023-04-03T05:28:16;34.42;;;25.05;;
40745;SDS011;26454;51.164;4.488;2023-04-03T05:30:43;26.15;;;21.90;;
40745;SDS011;26454;51.164;4.488;2023-04-03T05:33:10;29.50;;;21.90;;
40745;SDS011;26454;51.164;4.488;2023-04-03T05:35:36;28.40;;;21.15;;
40745;SDS011;26454;51.164;4.488;2023-04-03T05:40:32;33.85;;;24.38;;
40745;SDS011;26454;51.164;4.488;2023-04-03T05:42:58;33.45;;;22.30;;
40745;SDS011;26454;51.164;4.488;2023-04-03T05:45:24;29.75;;;23.52;;
40745;SDS011;26454;51.164;4.488;2023-04-03T05:47:50;24.48;;;20.27;;
40745;SDS011;26454;51.164;4.488;2023-04-03T05:50:16;25.63;;;20.73;;
40745;SDS011;26454;51.164;4.488;2023-04-03T05:52:44;20.85;;;18.40;;
40745;SDS011;26454;51.164;4.488;2023-04-03T05:55:11;21.40;;;17.67;;
40745;SDS011;26454;51.164;4.488;2023-04-03T05:57:37;19.55;;;17.08;;
40745;SDS011;26454;51.164;4.488;2023-04-03T06:00:04;23.55;;;17.52;;
40745;SDS011;26454;51.164;4.488;2023-04-03T06:02:31;25.90;;;18.38;;
40745;SDS011;26454;51.164;4.488;2023-04-03T06:04:57;21.38;;;16.70;;
40745;SDS011;26454;51.164;4.488;2023-04-03T06:07:24;20.60;;;15.10;;
40745;SDS011;26454;51.164;4.488;2023-04-03T06:09:53;20.42;;;15.48;;
40745;SDS011;26454;51.164;4.488;2023-04-03T06:12:21;15.85;;;12.98;;
40745;SDS011;26454;51.164;4.488;2023-04-03T06:14:48;20.73;;;13.82;;
40745;SDS011;26454;51.164;4.488;2023-04-03T06:17:14;15.52;;;12.02;;
40745;SDS011;26454;51.164;4.488;2023-04-03T06:19:43;15.23;;;10.57;;
40745;SDS011;26454;51.164;4.488;2023-04-03T06:22:09;17.80;;;12.80;;
40745;SDS011;26454;51.164;4.488;2023-04-03T06:24:36;17.17;;;11.13;;
40745;SDS011;26454;51.164;4.488;2023-04-03T06:27:03;16.52;;;11.45;;
40745;SDS011;26454;51.164;4.488;2023-04-03T06:29:29;13.65;;;10.45;;
40745;SDS011;26454;51.164;4.488;2023-04-03T06:31:55;23.67;;;10.75;;
40745;SDS011;26454;51.164;4.488;2023-04-03T06:34:22;17.55;;;10.07;;
40745;SDS011;26454;51.164;4.488;2023-04-03T06:36:50;12.63;;;9.07;;
40745;SDS011;26454;51.164;4.488;2023-04-03T06:39:20;12.40;;;9.48;;
40745;SDS011;26454;51.164;4.488;2023-04-03T06:41:49;18.95;;;10.25;;
40745;SDS011;26454;51.164;4.488;2023-04-03T06:44:18;15.95;;;10.45;;
40745;SDS011;26454;51.164;4.488;2023-04-03T06:46:44;12.55;;;8.68;;
40745;SDS011;26454;51.164;4.488;2023-04-03T06:49:12;12.07;;;8.48;;
40745;SDS011;26454;51.164;4.488;2023-04-03T06:51:58;14.43;;;7.63;;
40745;SDS011;26454;51.164;4.488;2023-04-03T06:54:24;13.90;;;8.10;;
40745;SDS011;26454;51.164;4.488;2023-04-03T06:56:50;16.00;;;7.97;;
40745;SDS011;26454;51.164;4.488;2023-04-03T06:59:16;13.40;;;7.75;;
40745;SDS011;26454;51.164;4.488;2023-04-03T07:01:42;16.10;;;7.63;;
40745;SDS011;26454;51.164;4.488;2023-04-03T07:04:09;13.45;;;7.60;;
40745;SDS011;26454;51.164;4.488;2023-04-03T07:06:35;11.18;;;7.43;;
40745;SDS011;26454;51.164;4.488;2023-04-03T07:09:01;11.75;;;7.55;;
40745;SDS011;26454;51.164;4.488;2023-04-03T07:11:28;13.20;;;6.50;;
40745;SDS011;26454;51.164;4.488;2023-04-03T07:13:54;11.10;;;7.18;;
40745;SDS011;26454;51.164;4.488;2023-04-03T07:16:20;15.50;;;7.95;;
40745;SDS011;26454;51.164;4.488;2023-04-03T07:18:47;9.25;;;5.85;;
40745;SDS011;26454;51.164;4.488;2023-04-03T07:21:23;12.10;;;6.30;;
40745;SDS011;26454;51.164;4.488;2023-04-03T07:23:49;10.52;;;6.63;;
40745;SDS011;26454;51.164;4.488;2023-04-03T07:26:15;9.48;;;6.40;;
40745;SDS011;26454;51.164;4.488;2023-04-03T07:28:42;15.43;;;6.50;;
40745;SDS011;26454;51.164;4.488;2023-04-03T07:31:11;12.77;;;6.63;;
40745;SDS011;26454;51.164;4.488;2023-04-03T07:33:38;12.40;;;6.10;;
40745;SDS011;26454;51.164;4.488;2023-04-03T07:36:05;12.50;;;5.75;;
40745;SDS011;26454;51.164;4.488;2023-04-03T07:38:34;8.32;;;5.53;;
40745;SDS011;26454;51.164;4.488;2023-04-03T07:41:02;6.15;;;5.25;;
40745;SDS011;26454;51.164;4.488;2023-04-03T07:43:29;8.55;;;4.63;;
40745;SDS011;26454;51.164;4.488;2023-04-03T07:45:55;10.73;;;5.72;;
40745;SDS011;26454;51.164;4.488;2023-04-03T07:48:22;7.45;;;5.00;;
40745;SDS011;26454;51.164;4.488;2023-04-03T07:50:48;7.70;;;4.68;;
40745;SDS011;26454;51.164;4.488;2023-04-03T07:53:15;16.33;;;5.28;;
40745;SDS011;26454;51.164;4.488;2023-04-03T07:55:41;11.15;;;5.10;;
40745;SDS011;26454;51.164;4.488;2023-04-03T07:58:10;12.63;;;5.68;;
40745;SDS011;26454;51.164;4.488;2023-04-03T08:00:36;6.60;;;4.47;;
40745;SDS011;26454;51.164;4.488;2023-04-03T08:03:02;10.55;;;5.10;;
40745;SDS011;26454;51.164;4.488;2023-04-03T08:05:30;12.63;;;5.40;;
40745;SDS011;26454;51.164;4.488;2023-04-03T08:07:56;12.00;;;4.60;;
40745;SDS011;26454;51.164;4.488;2023-04-03T08:10:23;6.47;;;4.85;;
40745;SDS011;26454;51.164;4.488;2023-04-03T08:12:49;11.23;;;4.82;;
40745;SDS011;26454;51.164;4.488;2023-04-03T08:15:18;8.43;;;4.47;;
40745;SDS011;26454;51.164;4.488;2023-04-03T08:17:46;5.65;;;4.40;;
40745;SDS011;26454;51.164;4.488;2023-04-03T08:20:12;11.02;;;4.43;;
40745;SDS011;26454;51.164;4.488;2023-04-03T08:22:39;7.00;;;4.50;;
40745;SDS011;26454;51.164;4.488;2023-04-03T08:25:05;7.00;;;3.58;;
40745;SDS011;26454;51.164;4.488;2023-04-03T08:27:31;8.45;;;4.03;;
40745;SDS011;26454;51.164;4.488;2023-04-03T08:29:57;9.80;;;3.80;;
40745;SDS011;26454;51.164;4.488;2023-04-03T08:32:24;6.95;;;3.15;;
40745;SDS011;26454;51.164;4.488;2023-04-03T08:34:50;9.77;;;3.33;;
40745;SDS011;26454;51.164;4.488;2023-04-03T08:37:17;3.75;;;3.25;;
40745;SDS011;26454;51.164;4.488;2023-04-03T08:39:45;6.38;;;3.28;;
40745;SDS011;26454;51.164;4.488;2023-04-03T08:47:30;6.88;;;3.70;;
40745;SDS011;26454;51.164;4.488;2023-04-03T08:50:04;7.20;;;3.45;;
40745;SDS011;26454;51.164;4.488;2023-04-03T08:52:38;9.50;;;4.10;;
40745;SDS011;26454;51.164;4.488;2023-04-03T08:55:20;6.15;;;2.90;;
40745;SDS011;26454;51.164;4.488;2023-04-03T08:57:48;5.80;;;3.03;;
40745;SDS011;26454;51.164;4.488;2023-04-03T09:00:18;4.28;;;2.97;;
40745;SDS011;26454;51.164;4.488;2023-04-03T09:02:49;5.13;;;2.72;;
40745;SDS011;26454;51.164;4.488;2023-04-03T09:05:17;4.85;;;2.97;;
40745;SDS011;26454;51.164;4.488;2023-04-03T09:10:23;5.47;;;2.78;;
40745;SDS011;26454;51.164;4.488;2023-04-03T09:12:53;6.03;;;3.10;;
40745;SDS011;26454;51.164;4.488;2023-04-03T09:15:23;6.03;;;2.50;;
40745;SDS011;26454;51.164;4.488;2023-04-03T09:17:53;7.72;;;3.28;;
40745;SDS011;26454;51.164;4.488;2023-04-03T09:20:29;4.68;;;2.80;;
40745;SDS011;26454;51.164;4.488;2023-04-03T09:23:00;7.80;;;2.63;;
40745;SDS011;26454;51.164;4.488;2023-04-03T09:25:32;6.85;;;2.38;;
40745;SDS011;26454;51.164;4.488;2023-04-03T09:28:00;6.53;;;2.80;;
40745;SDS011;26454;51.164;4.488;2023-04-03T09:30:28;5.25;;;2.33;;
40745;SDS011;26454;51.164;4.488;2023-04-03T09:32:55;7.65;;;2.95;;
40745;SDS011;26454;51.164;4.488;2023-04-03T09:35:24;4.97;;;2.15;;
40745;SDS011;26454;51.164;4.488;2023-04-03T09:37:52;7.18;;;2.67;;
40745;SDS011;26454;51.164;4.488;2023-04-03T09:40:30;8.88;;;3.22;;
40745;SDS011;26454;51.164;4.488;2023-04-03T09:43:01;6.82;;;3.30;;
40745;SDS011;26454;51.164;4.488;2023-04-03T09:45:29;6.80;;;2.65;;
40745;SDS011;26454;51.164;4.488;2023-04-03T09:50:54;5.05;;;2.25;;
40745;SDS011;26454;51.164;4.488;2023-04-03T09:53:36;6.15;;;2.33;;
40745;SDS011;26454;51.164;4.488;2023-04-03T09:56:18;5.07;;;2.20;;
40745;SDS011;26454;51.164;4.488;2023-04-03T09:59:06;4.00;;;2.70;;
40745;SDS011;26454;51.164;4.488;2023-04-03T10:01:35;5.43;;;3.15;;
40745;SDS011;26454;51.164;4.488;2023-04-03T10:06:39;3.80;;;2.25;;
40745;SDS011;26454;51.164;4.488;2023-04-03T10:09:24;3.72;;;1.80;;
40745;SDS011;26454;51.164;4.488;2023-04-03T10:14:30;2.60;;;2.20;;
40745;SDS011;26454;51.164;4.488;2023-04-03T10:17:02;4.10;;;2.25;;
40745;SDS011;26454;51.164;4.488;2023-04-03T10:19:32;2.75;;;1.95;;
40745;SDS011;26454;51.164;4.488;2023-04-03T10:22:02;4.20;;;2.03;;
40745;SDS011;26454;51.164;4.488;2023-04-03T10:24:36;2.45;;;2.00;;
40745;SDS011;26454;51.164;4.488;2023-04-03T10:27:08;6.38;;;2.55;;
40745;SDS011;26454;51.164;4.488;2023-04-03T10:29:42;2.45;;;1.98;;
40745;SDS011;26454;51.164;4.488;2023-04-03T10:32:16;3.97;;;2.13;;
40745;SDS011;26454;51.164;4.488;2023-04-03T10:34:47;4.50;;;2.35;;
40745;SDS011;26454;51.164;4.488;2023-04-03T10:37:19;3.70;;;2.33;;
40745;SDS011;26454;51.164;4.488;2023-04-03T10:39:53;2.38;;;1.75;;
40745;SDS011;26454;51.164;4.488;2023-04-03T10:42:28;3.47;;;2.03;;
40745;SDS011;26454;51.164;4.488;2023-04-03T10:47:35;5.45;;;2.15;;
40745;SDS011;26454;51.164;4.488;2023-04-03T10:55:41;6.35;;;2.22;;
40745;SDS011;26454;51.164;4.488;2023-04-03T10:58:13;3.67;;;1.77;;
40745;SDS011;26454;51.164;4.488;2023-04-03T11:00:45;3.78;;;2.42;;
40745;SDS011;26454;51.164;4.488;2023-04-03T11:03:31;5.10;;;2.05;;
40745;SDS011;26454;51.164;4.488;2023-04-03T11:06:01;2.83;;;1.67;;
40745;SDS011;26454;51.164;4.488;2023-04-03T11:08:32;3.17;;;1.65;;
40745;SDS011;26454;51.164;4.488;2023-04-03T11:11:00;1.67;;;1.30;;
40745;SDS011;26454;51.164;4.488;2023-04-03T11:13:39;2.78;;;1.52;;
40745;SDS011;26454;51.164;4.488;2023-04-03T11:21:20;1.98;;;1.80;;
40745;SDS011;26454;51.164;4.488;2023-04-03T11:23:48;3.03;;;1.63;;
40745;SDS011;26454;51.164;4.488;2023-04-03T11:26:16;3.40;;;1.40;;
40745;SDS011;26454;51.164;4.488;2023-04-03T11:28:43;1.42;;;1.30;;
40745;SDS011;26454;51.164;4.488;2023-04-03T11:31:14;2.05;;;1.33;;
40745;SDS011;26454;51.164;4.488;2023-04-03T11:38:56;3.00;;;1.35;;
40745;SDS011;26454;51.164;4.488;2023-04-03T11:41:25;3.15;;;1.23;;
40745;SDS011;26454;51.164;4.488;2023-04-03T11:49:10;1.70;;;0.90;;
40745;SDS011;26454;51.164;4.488;2023-04-03T11:51:57;3.67;;;1.33;;
40745;SDS011;26454;51.164;4.488;2023-04-03T11:56:59;4.22;;;1.17;;
40745;SDS011;26454;51.164;4.488;2023-04-03T11:59:29;2.10;;;1.02;;
40745;SDS011;26454;51.164;4.488;2023-04-03T12:02:22;4.15;;;1.33;;
40745;SDS011;26454;51.164;4.488;2023-04-03T12:07:29;3.00;;;1.40;;
40745;SDS011;26454;51.164;4.488;2023-04-03T12:09:57;1.13;;;1.00;;
40745;SDS011;26454;51.164;4.488;2023-04-03T12:12:27;5.63;;;1.23;;
40745;SDS011;26454;51.164;4.488;2023-04-03T12:14:53;3.28;;;1.30;;
40745;SDS011;26454;51.164;4.488;2023-04-03T12:17:20;2.67;;;1.38;;
40745;SDS011;26454;51.164;4.488;2023-04-03T12:19:48;1.90;;;1.25;;
40745;SDS011;26454;51.164;4.488;2023-04-03T12:22:15;2.75;;;1.63;;
40745;SDS011;26454;51.164;4.488;2023-04-03T12:24:46;3.55;;;1.63;;
40745;SDS011;26454;51.164;4.488;2023-04-03T12:27:23;3.65;;;1.27;;
40745;SDS011;26454;51.164;4.488;2023-04-03T12:29:51;2.80;;;1.10;;
40745;SDS011;26454;51.164;4.488;2023-04-03T12:32:26;1.83;;;1.23;;
40745;SDS011;26454;51.164;4.488;2023-04-03T12:40:15;1.73;;;1.50;;
40745;SDS011;26454;51.164;4.488;2023-04-03T12:42:48;2.53;;;1.65;;
40745;SDS011;26454;51.164;4.488;2023-04-03T12:45:20;2.28;;;1.00;;
40745;SDS011;26454;51.164;4.488;2023-04-03T12:47:48;2.20;;;1.08;;
40745;SDS011;26454;51.164;4.488;2023-04-03T12:50:17;1.00;;;0.90;;
40745;SDS011;26454;51.164;4.488;2023-04-03T12:52:47;1.75;;;1.10;;
40745;SDS011;26454;51.164;4.488;2023-04-03T12:55:16;2.10;;;1.17;;
40745;SDS011;26454;51.164;4.488;2023-04-03T12:57:43;2.42;;;1.13;;
40745;SDS011;26454;51.164;4.488;2023-04-03T13:02:45;4.35;;;1.40;;
40745;SDS011;26454;51.164;4.488;2023-04-03T13:05:13;2.03;;;1.40;;
40745;SDS011;26454;51.164;4.488;2023-04-03T13:07:41;2.33;;;1.20;;
40745;SDS011;26454;51.164;4.488;2023-04-03T13:10:16;3.67;;;1.35;;
40745;SDS011;26454;51.164;4.488;2023-04-03T13:12:51;2.78;;;1.38;;
40745;SDS011;26454;51.164;4.488;2023-04-03T13:15:20;4.57;;;1.30;;
40745;SDS011;26454;51.164;4.488;2023-04-03T13:17:48;6.25;;;1.85;;
40745;SDS011;26454;51.164;4.488;2023-04-03T13:20:18;3.60;;;1.60;;
40745;SDS011;26454;51.164;4.488;2023-04-03T13:22:49;3.35;;;1.20;;
40745;SDS011;26454;51.164;4.488;2023-04-03T13:25:18;3.50;;;1.30;;
40745;SDS011;26454;51.164;4.488;2023-04-03T13:27:46;4.63;;;1.45;;
40745;SDS011;26454;51.164;4.488;2023-04-03T13:30:20;2.83;;;1.70;;
40745;SDS011;26454;51.164;4.488;2023-04-03T13:32:47;2.40;;;1.55;;
40745;SDS011;26454;51.164;4.488;2023-04-03T13:37:54;2.33;;;1.10;;
40745;SDS011;26454;51.164;4.488;2023-04-03T13:40:20;2.15;;;1.00;;
40745;SDS011;26454;51.164;4.488;2023-04-03T13:42:48;2.80;;;1.20;;
40745;SDS011;26454;51.164;4.488;2023-04-03T13:45:24;2.42;;;1.27;;
40745;SDS011;26454;51.164;4.488;2023-04-03T13:47:53;2.13;;;1.00;;
40745;SDS011;26454;51.164;4.488;2023-04-03T13:50:21;1.73;;;1.15;;
40745;SDS011;26454;51.164;4.488;2023-04-03T13:55:32;4.25;;;1.30;;
40745;SDS011;26454;51.164;4.488;2023-04-03T13:58:20;2.88;;;1.05;;
40745;SDS011;26454;51.164;4.488;2023-04-03T14:00:49;2.92;;;1.55;;
40745;SDS011;26454;51.164;4.488;2023-04-03T14:03:25;3.72;;;1.10;;
40745;SDS011;26454;51.164;4.488;2023-04-03T14:05:53;5.93;;;1.13;;
40745;SDS011;26454;51.164;4.488;2023-04-03T14:08:20;2.03;;;1.30;;
40745;SDS011;26454;51.164;4.488;2023-04-03T14:10:47;3.25;;;1.20;;
40745;SDS011;26454;51.164;4.488;2023-04-03T14:13:16;2.42;;;1.70;;
40745;SDS011;26454;51.164;4.488;2023-04-03T14:15:43;4.13;;;1.60;;
40745;SDS011;26454;51.164;4.488;2023-04-03T14:18:11;1.95;;;1.33;;
40745;SDS011;26454;51.164;4.488;2023-04-03T14:20:37;2.15;;;1.45;;
40745;SDS011;26454;51.164;4.488;2023-04-03T14:23:04;3.53;;;1.20;;
40745;SDS011;26454;51.164;4.488;2023-04-03T14:25:30;5.20;;;1.38;;
40745;SDS011;26454;51.164;4.488;2023-04-03T14:27:56;1.90;;;1.08;;
40745;SDS011;26454;51.164;4.488;2023-04-03T14:30:25;2.63;;;1.27;;
40745;SDS011;26454;51.164;4.488;2023-04-03T14:32:51;4.93;;;1.80;;
40745;SDS011;26454;51.164;4.488;2023-04-03T14:35:19;3.30;;;1.23;;
40745;SDS011;26454;51.164;4.488;2023-04-03T14:37:47;1.23;;;1.10;;
40745;SDS011;26454;51.164;4.488;2023-04-03T14:40:14;4.38;;;1.40;;
40745;SDS011;26454;51.164;4.488;2023-04-03T14:42:42;2.38;;;1.27;;
40745;SDS011;26454;51.164;4.488;2023-04-03T14:45:10;2.47;;;1.30;;
40745;SDS011;26454;51.164;4.488;2023-04-03T14:47:45;1.92;;;1.75;;
40745;SDS011;26454;51.164;4.488;2023-04-03T14:50:15;2.83;;;1.50;;
40745;SDS011;26454;51.164;4.488;2023-04-03T14:52:47;2.80;;;1.30;;
40745;SDS011;26454;51.164;4.488;2023-04-03T14:55:14;3.05;;;1.30;;
40745;SDS011;26454;51.164;4.488;2023-04-03T14:57:42;5.95;;;2.15;;
40745;SDS011;26454;51.164;4.488;2023-04-03T15:00:17;6.80;;;1.85;;
40745;SDS011;26454;51.164;4.488;2023-04-03T15:02:43;2.03;;;1.20;;
40745;SDS011;26454;51.164;4.488;2023-04-03T15:05:11;2.03;;;1.33;;
40745;SDS011;26454;51.164;4.488;2023-04-03T15:07:42;3.58;;;1.33;;
40745;SDS011;26454;51.164;4.488;2023-04-03T15:10:19;3.45;;;1.60;;
40745;SDS011;26454;51.164;4.488;2023-04-03T15:12:47;2.20;;;1.40;;
40745;SDS011;26454;51.164;4.488;2023-04-03T15:15:14;3.28;;;1.35;;
40745;SDS011;26454;51.164;4.488;2023-04-03T15:17:41;1.70;;;1.40;;
40745;SDS011;26454;51.164;4.488;2023-04-03T15:20:11;2.90;;;1.10;;
40745;SDS011;26454;51.164;4.488;2023-04-03T15:22:42;1.38;;;1.23;;
40745;SDS011;26454;51.164;4.488;2023-04-03T15:25:08;4.97;;;1.40;;
40745;SDS011;26454;51.164;4.488;2023-04-03T15:27:36;2.13;;;1.70;;
40745;SDS011;26454;51.164;4.488;2023-04-03T15:30:05;1.95;;;1.13;;
40745;SDS011;26454;51.164;4.488;2023-04-03T15:32:32;3.78;;;1.10;;
40745;SDS011;26454;51.164;4.488;2023-04-03T15:34:59;3.45;;;1.17;;
40745;SDS011;26454;51.164;4.488;2023-04-03T15:37:25;2.50;;;1.38;;
40745;SDS011;26454;51.164;4.488;2023-04-03T15:39:52;3.42;;;1.38;;
40745;SDS011;26454;51.164;4.488;2023-04-03T15:42:18;2.35;;;1.30;;
40745;SDS011;26454;51.164;4.488;2023-04-03T15:44:46;2.20;;;1.38;;
40745;SDS011;26454;51.164;4.488;2023-04-03T15:47:13;4.70;;;1.50;;
40745;SDS011;26454;51.164;4.488;2023-04-03T15:49:41;4.88;;;1.40;;